createdAt,value
2018-09-13T00:00:59.634Z,9.80
2018-09-13T00:03:28.349Z,8.97
2018-09-13T00:05:57.538Z,9.23
2018-09-13T00:08:26.355Z,8.73
2018-09-13T00:10:55.017Z,8.57
2018-09-13T00:13:23.603Z,8.70
2018-09-13T00:15:52.672Z,12.13
2018-09-13T00:18:21.877Z,10.10
2018-09-13T00:20:51.286Z,11.90
2018-09-13T00:23:19.874Z,9.80
2018-09-13T00:25:55.150Z,11.03
2018-09-13T00:28:24.726Z,11.23
2018-09-13T00:30:54.154Z,12.47
2018-09-13T00:33:22.811Z,11.47
2018-09-13T00:35:51.508Z,12.23
2018-09-13T00:38:20.129Z,12.20
2018-09-13T00:40:55.295Z,13.93
2018-09-13T00:43:23.916Z,11.93
2018-09-13T00:45:52.516Z,10.93
2018-09-13T00:48:21.123Z,11.47
2018-09-13T00:50:49.807Z,13.63
2018-09-13T00:53:18.284Z,13.63
2018-09-13T00:55:46.768Z,13.47
2018-09-13T00:58:15.966Z,16.13
2018-09-13T01:00:45.004Z,15.30
2018-09-13T01:03:13.458Z,14.97
2018-09-13T01:05:42.104Z,13.77
2018-09-13T01:08:10.628Z,13.77
2018-09-13T01:10:39.171Z,15.47
2018-09-13T01:13:07.737Z,14.57
2018-09-13T01:15:36.399Z,13.97
2018-09-13T01:18:04.954Z,14.50
2018-09-13T01:20:33.517Z,13.57
2018-09-13T01:23:03.230Z,13.40
2018-09-13T01:25:31.682Z,16.87
2018-09-13T01:28:00.200Z,25.47
2018-09-13T01:30:31.929Z,25.27
2018-09-13T01:33:00.472Z,26.00
2018-09-13T01:35:28.918Z,28.20
2018-09-13T01:37:57.552Z,25.73
2018-09-13T01:40:26.034Z,22.33
2018-09-13T01:42:54.940Z,21.27
2018-09-13T01:45:24.089Z,18.17
2018-09-13T01:47:53.264Z,19.93
2018-09-13T01:50:21.869Z,15.25
2018-09-13T01:52:50.468Z,19.67
2018-09-13T01:55:18.973Z,21.50
2018-09-13T01:57:47.411Z,26.83
2018-09-13T02:00:16.024Z,21.30
2018-09-13T02:02:44.552Z,20.23
2018-09-13T02:05:13.241Z,16.27
2018-09-13T02:07:42.070Z,16.53
2018-09-13T02:10:10.678Z,14.80
2018-09-13T02:12:39.311Z,22.77
2018-09-13T02:15:08.026Z,24.07
2018-09-13T02:17:36.625Z,24.53
2018-09-13T02:20:05.137Z,22.47
2018-09-13T02:22:33.763Z,218.47
2018-09-13T02:25:02.271Z,31.97
2018-09-13T02:27:30.733Z,91.43
2018-09-13T02:29:59.197Z,33.17
2018-09-13T02:32:27.728Z,29.03
2018-09-13T02:34:56.442Z,27.60
2018-09-13T02:37:25.056Z,18.47
2018-09-13T02:39:53.759Z,16.73
2018-09-13T02:42:22.368Z,17.50
2018-09-13T02:44:50.855Z,16.97
2018-09-13T02:47:19.339Z,18.13
2018-09-13T02:49:48.019Z,17.63
2018-09-13T02:52:16.628Z,17.90
2018-09-13T02:54:45.180Z,20.30
2018-09-13T02:57:13.813Z,18.53
2018-09-13T02:59:42.308Z,20.33
2018-09-13T03:02:10.924Z,21.00
2018-09-13T03:04:39.440Z,18.63
2018-09-13T03:07:08.419Z,19.17
2018-09-13T03:09:36.893Z,19.37
2018-09-13T03:12:05.371Z,19.60
2018-09-13T03:14:33.868Z,18.73
2018-09-13T03:17:02.274Z,19.03
2018-09-13T03:19:30.836Z,21.67
2018-09-13T03:21:59.487Z,19.37
2018-09-13T03:24:27.996Z,20.83
2018-09-13T03:26:56.568Z,20.33
2018-09-13T03:29:25.165Z,21.67
2018-09-13T03:31:53.619Z,21.50
2018-09-13T03:34:22.273Z,22.53
2018-09-13T03:36:50.852Z,22.17
2018-09-13T03:39:19.359Z,22.13
2018-09-13T03:41:47.821Z,21.70
2018-09-13T03:44:16.353Z,22.57
2018-09-13T03:46:44.816Z,23.80
2018-09-13T03:49:13.261Z,24.07
2018-09-13T03:51:41.689Z,21.13
2018-09-13T03:54:10.867Z,25.27
2018-09-13T03:56:39.996Z,20.67
2018-09-13T03:59:08.882Z,22.10
2018-09-13T04:01:37.437Z,24.13
2018-09-13T04:04:06.128Z,22.53
2018-09-13T04:06:34.584Z,23.20
2018-09-13T04:09:03.389Z,25.17
2018-09-13T04:11:31.812Z,22.23
2018-09-13T04:14:01.082Z,21.57
2018-09-13T04:16:29.812Z,23.60
2018-09-13T04:18:58.332Z,21.67
2018-09-13T04:21:26.733Z,22.50
2018-09-13T04:23:55.538Z,25.50
2018-09-13T04:26:24.003Z,24.90
2018-09-13T04:28:52.981Z,25.97
2018-09-13T04:31:21.565Z,25.03
2018-09-13T04:33:50.024Z,25.13
2018-09-13T04:36:18.576Z,23.67
2018-09-13T04:38:48.063Z,26.00
2018-09-13T04:41:16.721Z,23.33
2018-09-13T04:43:45.218Z,25.43
2018-09-13T04:46:13.685Z,28.10
2018-09-13T04:48:42.304Z,30.10
2018-09-13T04:51:15.082Z,28.43
2018-09-13T04:53:43.548Z,27.73
2018-09-13T04:56:13.172Z,28.73
2018-09-13T04:58:42.635Z,27.87
2018-09-13T05:01:11.219Z,28.00
2018-09-13T05:03:39.834Z,28.37
2018-09-13T05:06:15.352Z,28.13
2018-09-13T05:08:44.388Z,33.00
2018-09-13T05:11:12.923Z,26.93
2018-09-13T05:13:41.472Z,28.40
2018-09-13T05:16:10.468Z,28.93
2018-09-13T05:18:38.903Z,31.80
2018-09-13T05:21:07.486Z,33.27
2018-09-13T05:23:35.953Z,29.37
2018-09-13T05:26:04.653Z,30.43
2018-09-13T05:28:33.260Z,32.47
2018-09-13T05:31:01.939Z,29.03
2018-09-13T05:33:30.451Z,33.13
2018-09-13T05:35:59.016Z,28.27
2018-09-13T05:38:27.645Z,29.07
2018-09-13T05:40:56.187Z,26.63
2018-09-13T05:43:24.903Z,26.20
2018-09-13T05:45:54.201Z,25.87
2018-09-13T05:48:22.923Z,27.70
2018-09-13T05:50:51.366Z,27.37
2018-09-13T05:53:20.113Z,27.80
2018-09-13T05:55:48.560Z,29.90
2018-09-13T05:58:17.124Z,27.83
2018-09-13T06:00:45.765Z,30.57
2018-09-13T06:03:14.394Z,29.23
2018-09-13T06:05:42.984Z,30.37
2018-09-13T06:08:11.481Z,29.80
2018-09-13T06:10:39.926Z,34.80
2018-09-13T06:13:08.673Z,27.23
2018-09-13T06:15:37.223Z,78.90
2018-09-13T06:18:05.893Z,32.63
2018-09-13T06:20:34.509Z,34.93
2018-09-13T06:23:03.084Z,36.70
2018-09-13T06:25:31.554Z,44.53
2018-09-13T06:28:00.658Z,34.47
2018-09-13T06:30:35.763Z,33.47
2018-09-13T06:33:09.656Z,192.17
2018-09-13T06:35:38.487Z,35.53
2018-09-13T06:38:10.588Z,34.37
2018-09-13T06:40:39.820Z,33.97
2018-09-13T06:43:14.995Z,35.27
2018-09-13T06:45:44.557Z,34.33
2018-09-13T06:48:13.584Z,32.47
2018-09-13T06:50:44.176Z,35.97
2018-09-13T06:53:13.108Z,46.23
2018-09-13T06:55:41.831Z,39.80
2018-09-13T06:58:11.653Z,31.40
2018-09-13T07:00:41.053Z,33.60
2018-09-13T07:03:09.652Z,33.30
2018-09-13T07:05:38.289Z,35.53
2018-09-13T07:08:07.075Z,32.77
2018-09-13T07:10:35.563Z,33.87
2018-09-13T07:13:04.085Z,38.67
2018-09-13T07:15:32.722Z,38.17
2018-09-13T07:18:01.316Z,35.50
2018-09-13T07:20:30.051Z,35.37
2018-09-13T07:22:58.723Z,37.20
2018-09-13T07:25:27.365Z,32.93
2018-09-13T07:27:56.269Z,32.77
2018-09-13T07:30:24.779Z,73.37
2018-09-13T07:32:53.262Z,40.10
2018-09-13T07:35:21.903Z,37.27
2018-09-13T07:37:50.397Z,43.50
2018-09-13T07:40:19.032Z,39.77
2018-09-13T07:42:48.266Z,37.83
2018-09-13T07:45:16.828Z,37.07
2018-09-13T07:47:45.342Z,36.17
2018-09-13T07:50:14.253Z,39.90
2018-09-13T07:52:42.780Z,38.07
2018-09-13T07:55:11.341Z,45.17
2018-09-13T07:57:39.777Z,40.77
2018-09-13T08:00:08.593Z,40.97
2018-09-13T08:02:37.188Z,43.07
2018-09-13T08:05:06.961Z,40.57
2018-09-13T08:07:35.407Z,45.50
2018-09-13T08:10:04.033Z,44.57
2018-09-13T08:12:33.498Z,44.80
2018-09-13T08:15:02.026Z,44.73
2018-09-13T08:17:30.553Z,45.30
2018-09-13T08:19:59.054Z,43.20
2018-09-13T08:22:27.790Z,47.30
2018-09-13T08:24:56.295Z,44.30
2018-09-13T08:27:24.830Z,46.00
2018-09-13T08:29:53.577Z,44.37
2018-09-13T08:32:22.142Z,43.37
2018-09-13T08:34:50.763Z,37.50
2018-09-13T08:37:19.195Z,40.10
2018-09-13T08:39:47.960Z,40.40
2018-09-13T08:42:17.682Z,42.27
2018-09-13T08:44:47.199Z,41.97
2018-09-13T08:47:16.111Z,39.83
2018-09-13T08:49:45.016Z,42.20
2018-09-13T08:52:13.665Z,39.17
2018-09-13T08:54:42.146Z,40.47
2018-09-13T08:57:10.807Z,41.60
2018-09-13T08:59:39.336Z,43.87
2018-09-13T09:02:07.947Z,43.63
2018-09-13T09:04:36.660Z,45.77
2018-09-13T09:07:06.236Z,44.13
2018-09-13T09:09:34.824Z,48.73
2018-09-13T09:12:03.491Z,50.27
2018-09-13T09:14:32.021Z,51.40
2018-09-13T09:17:00.548Z,51.03
2018-09-13T09:19:29.008Z,51.23
2018-09-13T09:21:57.466Z,48.93
2018-09-13T09:24:26.830Z,48.57
2018-09-13T09:26:55.532Z,51.40
2018-09-13T09:29:24.173Z,52.37
2018-09-13T09:31:52.657Z,55.53
2018-09-13T09:34:21.224Z,49.93
2018-09-13T09:36:49.888Z,53.37
2018-09-13T09:39:18.595Z,51.37
2018-09-13T09:41:47.369Z,48.93
2018-09-13T09:44:16.137Z,53.23
2018-09-13T09:46:44.915Z,53.07
2018-09-13T09:49:13.382Z,54.33
2018-09-13T09:51:41.930Z,53.43
2018-09-13T09:54:10.388Z,57.20
2018-09-13T09:56:38.940Z,59.40
2018-09-13T09:59:07.677Z,58.63
2018-09-13T10:01:40.409Z,63.67
2018-09-13T10:04:08.895Z,59.33
2018-09-13T10:06:37.440Z,61.83
2018-09-13T10:09:08.129Z,59.27
2018-09-13T10:11:36.600Z,58.37
2018-09-13T10:14:05.406Z,57.83
2018-09-13T10:16:39.061Z,57.43
2018-09-13T10:19:13.030Z,54.47
2018-09-13T10:21:46.777Z,53.60
2018-09-13T10:24:20.509Z,53.47
2018-09-13T10:26:54.372Z,52.07
2018-09-13T10:29:28.198Z,52.73
2018-09-13T10:32:01.825Z,55.13
2018-09-13T10:34:35.875Z,51.90
2018-09-13T10:37:09.802Z,52.10
2018-09-13T10:39:43.580Z,52.80
2018-09-13T10:42:17.233Z,51.33
2018-09-13T10:44:51.186Z,45.73
2018-09-13T10:47:25.306Z,40.50
2018-09-13T10:49:59.377Z,37.87
2018-09-13T10:52:31.031Z,35.55
2018-09-13T10:54:59.611Z,30.90
2018-09-13T10:57:33.848Z,25.87
2018-09-13T11:00:02.398Z,26.80
2018-09-13T11:02:30.858Z,24.43
2018-09-13T11:04:59.441Z,23.05
2018-09-13T11:07:27.932Z,24.00
2018-09-13T11:09:56.885Z,23.50
2018-09-13T11:12:31.439Z,23.75
2018-09-13T11:15:04.084Z,24.20
2018-09-13T11:17:33.069Z,18.23
2018-09-13T11:20:01.501Z,16.90
2018-09-13T11:22:30.344Z,14.78
2018-09-13T11:24:58.981Z,13.60
2018-09-13T11:27:27.573Z,9.83
2018-09-13T11:29:56.061Z,10.17
2018-09-13T11:32:25.576Z,10.70
2018-09-13T11:34:54.310Z,9.28
2018-09-13T11:37:23.207Z,8.90
2018-09-13T11:39:51.705Z,7.83
2018-09-13T11:42:20.426Z,8.33
2018-09-13T11:44:49.318Z,6.95
2018-09-13T11:47:17.949Z,6.95
2018-09-13T11:49:46.490Z,7.87
2018-09-13T11:52:15.057Z,7.53
2018-09-13T11:54:43.616Z,5.90
2018-09-13T11:57:12.242Z,6.87
2018-09-13T11:59:40.791Z,6.15
2018-09-13T12:02:09.422Z,6.35
2018-09-13T12:04:38.729Z,7.37
2018-09-13T12:07:07.201Z,5.58
2018-09-13T12:09:35.904Z,5.37
2018-09-13T12:12:04.260Z,6.97
2018-09-13T12:14:33.177Z,5.20
2018-09-13T12:17:01.671Z,5.20
2018-09-13T12:19:30.453Z,5.08
2018-09-13T12:21:59.029Z,6.33
2018-09-13T12:24:28.093Z,7.83
2018-09-13T12:26:57.760Z,4.22
2018-09-13T12:29:26.530Z,5.67
2018-09-13T12:31:55.231Z,3.60
2018-09-13T12:34:23.972Z,5.40
2018-09-13T12:36:53.612Z,4.45
2018-09-13T12:39:22.406Z,3.47
2018-09-13T12:41:51.405Z,6.40
2018-09-13T12:44:19.944Z,5.62
2018-09-13T12:46:48.709Z,5.87
2018-09-13T12:49:17.351Z,6.00
2018-09-13T12:51:45.778Z,5.00
2018-09-13T12:54:14.337Z,6.67
2018-09-13T12:56:42.867Z,5.55
2018-09-13T12:59:11.338Z,6.22
2018-09-13T13:01:40.117Z,6.60
2018-09-13T13:04:08.564Z,6.17
2018-09-13T13:06:37.236Z,6.80
2018-09-13T13:09:08.250Z,5.10
2018-09-13T13:11:36.876Z,6.25
2018-09-13T13:14:05.438Z,5.40
2018-09-13T13:16:34.487Z,6.05
2018-09-13T13:19:02.852Z,5.95
2018-09-13T13:21:31.596Z,5.60
2018-09-13T13:24:00.069Z,5.78
2018-09-13T13:26:28.708Z,4.60
2018-09-13T13:28:57.804Z,5.50
2018-09-13T13:31:26.342Z,6.65
2018-09-13T13:33:54.839Z,5.15
2018-09-13T13:36:23.599Z,5.60
2018-09-13T13:38:52.055Z,7.45
2018-09-13T13:41:20.580Z,7.12
2018-09-13T13:43:49.152Z,5.92
2018-09-13T13:46:17.580Z,7.10
2018-09-13T13:48:46.437Z,6.03
2018-09-13T13:51:15.056Z,4.45
2018-09-13T13:53:43.887Z,4.95
2018-09-13T13:56:12.529Z,3.77
2018-09-13T13:58:42.369Z,4.72
2018-09-13T14:01:10.948Z,5.80
2018-09-13T14:03:39.637Z,6.53
2018-09-13T14:06:08.971Z,4.20
2018-09-13T14:08:37.493Z,6.47
2018-09-13T14:11:06.315Z,5.53
2018-09-13T14:13:35.426Z,5.00
2018-09-13T14:16:04.114Z,4.55
2018-09-13T14:18:32.829Z,6.08
2018-09-13T14:21:01.314Z,4.28
2018-09-13T14:23:29.873Z,5.05
2018-09-13T14:25:58.625Z,6.25
2018-09-13T14:28:27.932Z,6.22
2018-09-13T14:30:56.453Z,5.85
2018-09-13T14:33:25.291Z,5.28
2018-09-13T14:35:54.032Z,5.28
2018-09-13T14:38:22.972Z,4.60
2018-09-13T14:40:51.485Z,4.37
2018-09-13T14:43:20.095Z,3.62
2018-09-13T14:45:48.637Z,6.50
2018-09-13T14:48:17.345Z,5.10
2018-09-13T14:50:45.900Z,5.60
2018-09-13T14:53:14.411Z,5.97
2018-09-13T14:55:43.680Z,5.42
2018-09-13T14:58:12.362Z,4.92
2018-09-13T15:00:41.027Z,5.33
2018-09-13T15:03:09.658Z,5.28
2018-09-13T15:05:38.340Z,4.47
2018-09-13T15:08:07.054Z,5.83
2018-09-13T15:10:35.568Z,5.20
2018-09-13T15:13:04.941Z,5.00
2018-09-13T15:15:34.166Z,4.58
2018-09-13T15:18:02.713Z,6.28
2018-09-13T15:20:31.224Z,4.33
2018-09-13T15:23:00.345Z,3.85
2018-09-13T15:25:28.903Z,4.45
2018-09-13T15:27:57.369Z,4.35
2018-09-13T15:30:25.895Z,6.80
2018-09-13T15:32:54.394Z,3.20
2018-09-13T15:35:22.996Z,4.13
2018-09-13T15:37:58.632Z,4.05
2018-09-13T15:40:27.158Z,4.40
2018-09-13T15:42:55.793Z,7.72
2018-09-13T15:45:24.310Z,3.67
2018-09-13T15:47:52.909Z,4.67
2018-09-13T15:50:21.391Z,4.37
2018-09-13T15:52:49.998Z,4.87
2018-09-13T15:55:19.349Z,3.27
2018-09-13T15:57:47.969Z,6.25
2018-09-13T16:00:16.554Z,6.08
2018-09-13T16:02:45.105Z,3.77
2018-09-13T16:05:13.617Z,6.30
2018-09-13T16:07:42.365Z,4.20
2018-09-13T16:10:10.873Z,5.03
2018-09-13T16:12:39.526Z,4.15
2018-09-13T16:15:07.935Z,3.67
2018-09-13T16:17:36.586Z,4.40
2018-09-13T16:20:05.492Z,4.95
2018-09-13T16:22:34.109Z,5.00
2018-09-13T16:25:02.689Z,5.75
2018-09-13T16:27:31.236Z,4.95
2018-09-13T16:30:00.717Z,3.98
2018-09-13T16:32:29.343Z,3.52
2018-09-13T16:34:59.729Z,3.58
2018-09-13T16:37:33.991Z,4.35
2018-09-13T16:41:08.450Z,5.72
2018-09-13T16:43:42.562Z,4.33
2018-09-13T16:46:17.832Z,7.70
2018-09-13T16:48:46.399Z,5.12
2018-09-13T16:51:15.005Z,6.70
2018-09-13T16:53:43.637Z,4.58
2018-09-13T16:56:12.329Z,4.92
2018-09-13T16:58:40.842Z,5.20
2018-09-13T17:01:09.419Z,6.55
2018-09-13T17:03:37.908Z,4.60
2018-09-13T17:06:06.766Z,5.10
2018-09-13T17:08:38.252Z,4.30
2018-09-13T17:11:06.879Z,4.50
2018-09-13T17:13:35.826Z,4.42
2018-09-13T17:16:04.366Z,5.78
2018-09-13T17:18:32.924Z,3.55
2018-09-13T17:21:01.512Z,4.08
2018-09-13T17:26:26.397Z,4.20
2018-09-13T17:28:54.877Z,5.05
2018-09-13T17:31:24.578Z,4.30
2018-09-13T17:33:53.247Z,4.33
2018-09-13T17:36:21.720Z,4.90
2018-09-13T17:38:50.569Z,3.10
2018-09-13T17:41:19.246Z,4.47
2018-09-13T17:43:47.952Z,3.80
2018-09-13T17:46:16.931Z,4.53
2018-09-13T17:48:45.683Z,3.70
2018-09-13T17:51:14.671Z,4.42
2018-09-13T17:53:47.714Z,6.78
2018-09-13T17:56:16.678Z,4.83
2018-09-13T17:58:45.740Z,7.42
2018-09-13T18:01:14.426Z,5.53
2018-09-13T18:03:43.441Z,6.80
2018-09-13T18:06:12.071Z,4.30
2018-09-13T18:08:40.900Z,5.17
2018-09-13T18:11:09.524Z,4.85
2018-09-13T18:13:38.651Z,5.53
2018-09-13T18:16:07.286Z,6.70
2018-09-13T18:18:36.157Z,6.50
2018-09-13T18:21:11.377Z,6.23
2018-09-13T18:23:40.239Z,4.60
2018-09-13T18:26:08.942Z,5.27
2018-09-13T18:28:38.283Z,5.43
2018-09-13T18:31:09.180Z,5.20
2018-09-13T18:33:37.975Z,4.83
2018-09-13T18:36:06.796Z,4.87
2018-09-13T18:38:36.331Z,6.10
2018-09-13T18:41:05.388Z,5.17
2018-09-13T18:43:34.018Z,10.28
2018-09-13T18:46:03.495Z,12.60
2018-09-13T18:48:32.208Z,8.00
2018-09-13T18:51:00.754Z,6.67
2018-09-13T18:53:29.616Z,5.70
2018-09-13T18:56:00.232Z,7.28
2018-09-13T18:58:35.562Z,5.47
2018-09-13T19:01:09.507Z,4.63
2018-09-13T19:03:40.195Z,6.27
2018-09-13T19:06:12.972Z,6.27
2018-09-13T19:08:41.676Z,5.37
2018-09-13T19:11:11.986Z,7.27
2018-09-13T19:13:42.431Z,7.07
2018-09-13T19:16:12.914Z,7.67
2018-09-13T19:18:43.158Z,6.13
2018-09-13T19:21:12.455Z,10.33
2018-09-13T19:23:41.403Z,5.97
2018-09-13T19:26:10.050Z,6.10
2018-09-13T19:28:39.786Z,6.87
2018-09-13T19:31:08.978Z,4.67
2018-09-13T19:33:38.455Z,5.90
2018-09-13T19:36:15.478Z,4.80
2018-09-13T19:38:49.447Z,5.30
2018-09-13T19:41:20.704Z,6.83
2018-09-13T19:43:51.006Z,6.77
2018-09-13T19:46:20.080Z,5.20
2018-09-13T19:48:48.938Z,8.63
2018-09-13T19:51:17.917Z,4.83
2018-09-13T19:53:46.709Z,9.40
2018-09-13T19:56:15.430Z,5.43
2018-09-13T19:58:51.082Z,4.03
2018-09-13T20:01:19.779Z,6.97
2018-09-13T20:03:49.011Z,7.80
2018-09-13T20:06:17.998Z,7.23
2018-09-13T20:08:46.913Z,7.47
2018-09-13T20:11:15.952Z,9.90
2018-09-13T20:13:45.701Z,6.87
2018-09-13T20:16:14.563Z,6.37
2018-09-13T20:18:44.248Z,5.80
2018-09-13T20:21:13.138Z,6.43
2018-09-13T20:23:41.875Z,4.83
2018-09-13T20:26:10.798Z,104.93
2018-09-13T20:28:39.378Z,8.17
2018-09-13T20:31:10.110Z,86.63
2018-09-13T20:33:39.111Z,76.90
2018-09-13T20:36:07.623Z,6.93
2018-09-13T20:38:36.572Z,4.63
2018-09-13T20:41:05.533Z,7.33
2018-09-13T20:43:38.375Z,4.60
2018-09-13T20:46:07.240Z,6.57
2018-09-13T20:48:35.721Z,4.80
2018-09-13T20:51:04.831Z,5.97
2018-09-13T20:53:33.673Z,5.63
2018-09-13T20:56:02.295Z,5.60
2018-09-13T20:58:30.985Z,4.10
2018-09-13T21:00:59.697Z,4.23
2018-09-13T21:03:28.452Z,5.57
2018-09-13T21:05:57.231Z,3.97
2018-09-13T21:08:25.957Z,4.60
2018-09-13T21:10:54.868Z,4.97
2018-09-13T21:13:24.245Z,4.60
2018-09-13T21:15:52.979Z,4.70
2018-09-13T21:18:21.601Z,5.77
2018-09-13T21:20:50.603Z,5.10
2018-09-13T21:23:19.083Z,5.30
2018-09-13T21:25:47.944Z,5.60
2018-09-13T21:28:16.878Z,5.00
2018-09-13T21:30:45.729Z,5.77
2018-09-13T21:33:14.794Z,5.20
2018-09-13T21:35:43.845Z,6.17
2018-09-13T21:38:13.036Z,4.87
2018-09-13T21:40:41.839Z,8.90
2018-09-13T21:43:11.209Z,6.50
2018-09-13T21:45:39.721Z,3.70
2018-09-13T21:48:09.035Z,6.00
2018-09-13T21:50:37.552Z,6.23
2018-09-13T21:53:06.767Z,5.90
2018-09-13T21:55:35.563Z,5.37
2018-09-13T21:58:04.269Z,5.23
2018-09-13T22:00:33.948Z,5.43
2018-09-13T22:03:03.023Z,8.30
2018-09-13T22:05:32.329Z,5.43
2018-09-13T22:08:01.292Z,6.27
2018-09-13T22:10:30.454Z,5.20
2018-09-13T22:12:59.561Z,4.30
2018-09-13T22:15:28.418Z,7.37
2018-09-13T22:17:57.122Z,4.90
2018-09-13T22:20:25.746Z,4.37
2018-09-13T22:22:54.456Z,5.73
2018-09-13T22:25:22.885Z,6.27
2018-09-13T22:27:51.496Z,6.60
2018-09-13T22:30:19.993Z,4.67
2018-09-13T22:32:49.889Z,4.93
2018-09-13T22:35:19.285Z,5.67
2018-09-13T22:37:47.803Z,7.53
2018-09-13T22:40:16.363Z,5.43
2018-09-13T22:42:44.975Z,4.20
2018-09-13T22:45:13.461Z,6.57
2018-09-13T22:47:41.973Z,10.37
2018-09-13T22:50:10.528Z,7.50
2018-09-13T22:52:39.051Z,5.10
2018-09-13T22:55:07.734Z,6.37
2018-09-13T22:57:36.198Z,5.77
2018-09-13T23:00:05.642Z,5.30
2018-09-13T23:02:39.449Z,4.00
2018-09-13T23:05:08.110Z,4.90
2018-09-13T23:07:36.665Z,6.17
2018-09-13T23:10:05.943Z,4.83
2018-09-13T23:12:34.454Z,7.00
2018-09-13T23:15:03.037Z,9.33
2018-09-13T23:17:31.676Z,6.53
2018-09-13T23:20:00.205Z,7.60
2018-09-13T23:22:28.778Z,7.43
2018-09-13T23:24:57.276Z,8.37
2018-09-13T23:27:25.965Z,8.87
2018-09-13T23:29:55.208Z,9.03
2018-09-13T23:32:23.738Z,7.93
2018-09-13T23:34:52.482Z,6.10
2018-09-13T23:37:21.632Z,7.90
2018-09-13T23:39:50.321Z,7.17
2018-09-13T23:42:18.896Z,7.97
2018-09-13T23:44:47.992Z,7.53
2018-09-13T23:47:17.095Z,6.20
2018-09-13T23:49:45.520Z,6.50
2018-09-13T23:52:14.111Z,7.67
2018-09-13T23:54:42.781Z,8.07
2018-09-13T23:57:11.313Z,8.83
2018-09-13T23:59:39.920Z,9.97
